Time;durP1;ratioP1;P1;durP2;ratioP2;P2;SDS_P1;SDS_P2;PMS_P1;PMS_P2;Temp;Humidity;BMP_temperature;BMP_pressure;BME280_temperature;BME280_humidity;BME280_pressure;Samples;Min_cycle;Max_cycle;Signal;HPM_P1;HPM_P2
2020/12/04 00:01:44;;;;;;;17.43;11.17;;;;;;;1.59;71.82;94439.72;5052869;28;20182;-65
2020/12/04 00:04:09;;;;;;;16.67;10.80;;;;;;;1.61;72.76;94466.91;5052879;28;20182;-65
2020/12/04 00:06:35;;;;;;;16.90;11.10;;;;;;;1.71;73.27;94462.94;5053473;28;20580;-65
2020/12/04 00:09:03;;;;;;;14.87;10.80;;;;;;;1.58;73.47;94436.38;5053249;28;20213;-65
2020/12/04 00:11:34;;;;;;;18.83;11.20;;;;;;;1.65;73.78;94431.88;5054208;28;20276;-65
2020/12/04 00:14:00;;;;;;;15.93;11.00;;;;;;;1.63;73.32;94420.19;5052895;28;20304;-64
2020/12/04 00:16:25;;;;;;;15.43;11.53;;;;;;;1.79;72.76;94422.03;5053351;28;20292;-65
2020/12/04 00:18:51;;;;;;;13.90;10.13;;;;;;;1.43;73.31;94396.56;5053903;28;20177;-65
2020/12/04 00:21:16;;;;;;;15.57;10.87;;;;;;;1.32;73.83;94379.31;5052667;28;20178;-65
2020/12/04 00:23:41;;;;;;;15.60;10.73;;;;;;;1.04;76.04;94380.06;5053731;28;20181;-65
2020/12/04 00:26:07;;;;;;;16.30;11.40;;;;;;;1.38;74.76;94383.56;5052325;28;20256;-65
2020/12/04 00:28:32;;;;;;;15.73;10.40;;;;;;;1.39;75.48;94391.09;5053402;28;20623;-65
2020/12/04 00:30:58;;;;;;;16.07;10.50;;;;;;;1.43;74.89;94402.53;5053198;28;20170;-64
2020/12/04 00:33:24;;;;;;;15.57;10.73;;;;;;;1.53;74.49;94407.09;5053327;28;20174;-65
2020/12/04 00:35:49;;;;;;;17.27;11.50;;;;;;;1.63;74.15;94395.16;5053574;28;20276;-65
2020/12/04 00:38:15;;;;;;;17.80;10.93;;;;;;;1.69;74.33;94396.03;5052243;28;20360;-64
2020/12/04 00:40:41;;;;;;;15.80;11.00;;;;;;;1.70;74.08;94394.25;5053479;28;20265;-65
2020/12/04 00:43:06;;;;;;;16.97;11.43;;;;;;;1.72;74.27;94393.00;5052387;28;20207;-65
2020/12/04 00:45:31;;;;;;;19.13;12.30;;;;;;;1.77;74.29;94392.31;5053342;28;20251;-66
2020/12/04 00:47:59;;;;;;;16.17;11.63;;;;;;;1.76;73.34;94383.00;5053837;28;20676;-67
2020/12/04 00:50:25;;;;;;;16.90;11.43;;;;;;;1.83;73.18;94373.31;5053765;28;20271;-66
2020/12/04 00:52:52;;;;;;;14.47;10.63;;;;;;;1.76;73.45;94373.44;5054328;28;20268;-66
2020/12/04 00:55:19;;;;;;;16.63;11.07;;;;;;;1.62;73.59;94372.16;5059314;28;20241;-66
2020/12/04 00:57:44;;;;;;;15.70;10.27;;;;;;;1.76;73.43;94359.75;5073701;28;20630;-65
2020/12/04 01:00:11;;;;;;;15.03;10.60;;;;;;;1.85;71.88;94366.09;5073505;28;20227;-66
2020/12/04 01:02:36;;;;;;;18.10;11.43;;;;;;;1.79;72.14;94351.53;5074002;28;20174;-66
2020/12/04 01:05:02;;;;;;;16.70;11.33;;;;;;;1.51;73.57;94347.94;5073205;28;20250;-66
2020/12/04 01:07:28;;;;;;;17.83;11.67;;;;;;;1.49;73.36;94347.41;5073838;28;20622;-66
2020/12/04 01:09:53;;;;;;;16.57;11.37;;;;;;;1.46;74.14;94342.69;5073900;28;20165;-66
2020/12/04 01:12:19;;;;;;;17.07;11.30;;;;;;;1.43;74.33;94329.47;5072832;28;20177;-66
2020/12/04 01:14:44;;;;;;;19.73;12.50;;;;;;;1.51;74.03;94329.09;5073507;28;20287;-66
2020/12/04 01:17:10;;;;;;;15.77;11.00;;;;;;;1.47;74.14;94330.56;5072529;28;20212;-66
2020/12/04 01:19:35;;;;;;;18.60;11.63;;;;;;;1.43;74.30;94326.91;5073315;28;20533;-66
2020/12/04 01:22:00;;;;;;;16.10;10.57;;;;;;;1.50;73.40;94318.00;5073031;28;20162;-66
2020/12/04 01:24:26;;;;;;;16.93;11.03;;;;;;;1.54;72.95;94318.31;5073196;28;20170;-66
2020/12/04 01:26:51;;;;;;;16.47;10.90;;;;;;;1.64;72.30;94313.34;5073310;28;20172;-66
2020/12/04 01:29:17;;;;;;;17.00;11.47;;;;;;;1.58;72.31;94317.63;5072263;28;20169;-66
2020/12/04 01:31:47;;;;;;;16.10;10.20;;;;;;;1.52;71.79;94315.97;5073518;28;20170;-66
2020/12/04 01:34:13;;;;;;;15.43;10.80;;;;;;;1.39;73.10;94324.00;5075722;28;20189;-66
2020/12/04 01:36:38;;;;;;;14.50;9.40;;;;;;;1.47;73.03;94322.84;5073816;28;20221;-66
2020/12/04 01:39:04;;;;;;;16.07;10.30;;;;;;;1.54;72.37;94326.84;5071760;28;20718;-65
2020/12/04 01:41:36;;;;;;;16.03;11.63;;;;;;;1.59;72.41;94321.78;5072083;28;20170;-65
2020/12/04 01:44:03;;;;;;;16.53;11.00;;;;;;;1.65;72.33;94322.66;5072099;28;20602;-65
2020/12/04 01:46:29;;;;;;;14.87;10.07;;;;;;;1.68;72.27;94309.25;5072118;28;20201;-66
2020/12/04 01:48:54;;;;;;;14.90;10.23;;;;;;;1.71;72.82;94308.81;5072640;28;20195;-66
2020/12/04 01:51:22;;;;;;;16.07;11.10;;;;;;;1.64;73.75;94313.34;5071830;28;20269;-66
2020/12/04 01:53:50;;;;;;;16.00;11.33;;;;;;;1.66;73.71;94295.81;5072605;28;20266;-67
2020/12/04 01:56:15;;;;;;;20.03;12.27;;;;;;;1.74;73.67;94303.19;5069610;28;20683;-66
2020/12/04 01:58:41;;;;;;;19.00;13.07;;;;;;;1.76;73.78;94298.56;5072873;28;20660;-66
2020/12/04 02:01:15;;;;;;;17.67;12.37;;;;;;;1.86;73.67;94296.16;5071741;28;20181;-66
2020/12/04 02:03:41;;;;;;;16.87;11.23;;;;;;;1.71;73.97;94277.84;5072698;28;20574;-66
2020/12/04 02:06:17;;;;;;;15.83;11.30;;;;;;;1.82;73.31;94283.94;5071752;28;20205;-66
2020/12/04 02:08:53;;;;;;;16.63;12.53;;;;;;;1.80;73.16;94278.22;5073563;28;20698;-66
2020/12/04 02:11:21;;;;;;;20.73;12.70;;;;;;;1.79;73.49;94268.91;5070985;28;20668;-65
2020/12/04 02:13:48;;;;;;;16.93;11.77;;;;;;;1.78;73.77;94257.81;5072342;28;20173;-66
2020/12/04 02:16:18;;;;;;;16.37;11.07;;;;;;;1.79;73.62;94259.38;5071315;28;20209;-66
2020/12/04 02:18:44;;;;;;;18.73;12.37;;;;;;;1.67;73.80;94262.00;5072710;28;20245;-66
2020/12/04 02:21:11;;;;;;;15.70;11.30;;;;;;;1.73;73.74;94259.53;5070814;28;20177;-65
2020/12/04 02:23:37;;;;;;;17.10;11.50;;;;;;;1.70;74.70;94254.81;5071430;28;20249;-65
2020/12/04 02:26:03;;;;;;;18.03;12.37;;;;;;;1.67;74.48;94241.34;5070822;28;20206;-64
2020/12/04 02:28:39;;;;;;;16.47;11.87;;;;;;;1.64;74.55;94234.09;5070958;28;20607;-65
2020/12/04 02:31:05;;;;;;;14.93;10.90;;;;;;;1.75;73.04;94236.84;5070746;28;20403;-64
2020/12/04 02:33:32;;;;;;;17.63;11.77;;;;;;;1.70;74.31;94236.75;5071679;28;20173;-65
2020/12/04 02:36:00;;;;;;;16.53;11.53;;;;;;;1.64;74.38;94235.88;5070727;28;20307;-64
2020/12/04 02:38:26;;;;;;;17.03;11.60;;;;;;;1.66;74.27;94228.72;5063071;28;20209;-64
2020/12/04 02:40:53;;;;;;;16.07;11.50;;;;;;;1.93;73.93;94239.19;5071360;28;20220;-64
2020/12/04 02:43:19;;;;;;;18.47;11.97;;;;;;;1.74;73.83;94238.63;5069955;28;20369;-64
2020/12/04 02:45:45;;;;;;;16.97;11.73;;;;;;;1.67;74.55;94240.59;5069819;28;20605;-65
2020/12/04 02:48:11;;;;;;;18.13;12.43;;;;;;;1.78;74.33;94231.22;5068429;28;20657;-64
2020/12/04 02:50:37;;;;;;;17.03;11.73;;;;;;;1.84;73.71;94222.53;5070815;28;20533;-64
2020/12/04 02:53:03;;;;;;;16.43;11.53;;;;;;;1.72;74.66;94238.09;5070293;28;20181;-64
2020/12/04 02:55:28;;;;;;;17.73;12.77;;;;;;;1.76;74.13;94217.75;5069020;28;20240;-66
2020/12/04 02:57:54;;;;;;;16.07;12.13;;;;;;;1.83;74.39;94218.38;5071868;28;20177;-67
2020/12/04 03:00:19;;;;;;;18.27;12.23;;;;;;;1.82;74.77;94227.13;5071152;28;20180;-66
2020/12/04 03:02:45;;;;;;;16.37;11.27;;;;;;;1.83;74.40;94226.13;5071645;28;20169;-66
2020/12/04 03:05:11;;;;;;;13.73;10.47;;;;;;;1.90;74.02;94218.97;5069664;28;20225;-64
2020/12/04 03:07:37;;;;;;;16.43;11.63;;;;;;;1.85;73.96;94214.53;5070701;28;20242;-65
2020/12/04 03:10:06;;;;;;;15.73;10.63;;;;;;;1.90;74.25;94217.19;5069878;28;20256;-64
2020/12/04 03:12:33;;;;;;;16.27;11.17;;;;;;;1.86;73.80;94208.34;5073582;28;20165;-64
2020/12/04 03:15:03;;;;;;;16.60;11.57;;;;;;;1.81;73.88;94212.66;5072640;28;20215;-64
2020/12/04 03:17:29;;;;;;;14.60;10.80;;;;;;;1.90;73.62;94204.28;5056286;28;20177;-65
2020/12/04 03:19:56;;;;;;;14.30;9.97;;;;;;;1.88;73.33;94203.75;5070612;28;20184;-65
2020/12/04 03:22:21;;;;;;;16.37;11.17;;;;;;;1.77;73.67;94202.03;5069985;28;20169;-65
2020/12/04 03:24:46;;;;;;;15.77;11.20;;;;;;;1.86;73.47;94200.59;5071003;28;20681;-66
2020/12/04 03:27:12;;;;;;;14.27;10.63;;;;;;;1.91;73.35;94192.16;5070929;28;20168;-65
2020/12/04 03:29:38;;;;;;;14.27;10.47;;;;;;;1.88;73.64;94196.00;5071562;28;20169;-65
2020/12/04 03:32:03;;;;;;;15.50;10.43;;;;;;;1.94;73.15;94192.47;5070871;28;20174;-65
2020/12/04 03:34:29;;;;;;;16.23;11.27;;;;;;;2.17;72.07;94196.66;5071558;28;20169;-65
2020/12/04 03:36:54;;;;;;;15.37;10.50;;;;;;;2.12;72.99;94206.91;5070872;28;20205;-65
2020/12/04 03:39:20;;;;;;;15.67;11.17;;;;;;;2.02;73.14;94204.19;5069399;28;20181;-65
2020/12/04 03:41:45;;;;;;;17.07;11.37;;;;;;;1.93;74.07;94218.53;5071063;28;20181;-65
2020/12/04 03:44:11;;;;;;;15.80;11.57;;;;;;;1.91;73.92;94229.09;5070246;28;20177;-65
2020/12/04 03:46:36;;;;;;;13.47;10.23;;;;;;;1.96;73.28;94233.53;5070063;28;20254;-65
2020/12/04 03:49:01;;;;;;;15.33;10.70;;;;;;;2.01;73.38;94238.78;5072301;28;20204;-65
2020/12/04 03:51:27;;;;;;;13.17;9.73;;;;;;;2.06;72.63;94239.63;5070730;28;20680;-65
2020/12/04 03:53:52;;;;;;;13.97;10.10;;;;;;;2.04;72.40;94252.03;5070815;28;20583;-65
2020/12/04 03:56:18;;;;;;;16.50;10.03;;;;;;;2.12;72.17;94255.22;5067445;28;20248;-65
2020/12/04 03:58:43;;;;;;;13.63;10.07;;;;;;;2.09;73.51;94249.50;5070406;28;20196;-65
2020/12/04 04:01:09;;;;;;;14.13;10.60;;;;;;;2.10;73.24;94252.88;5069502;28;20173;-65
2020/12/04 04:03:34;;;;;;;15.97;10.70;;;;;;;2.21;73.33;94254.59;5072583;28;20704;-65
2020/12/04 04:05:59;;;;;;;15.90;11.00;;;;;;;2.22;72.85;94252.78;5073041;28;20193;-64
2020/12/04 04:08:25;;;;;;;14.40;10.63;;;;;;;2.38;71.46;94246.81;5073945;28;20169;-65
2020/12/04 04:10:50;;;;;;;13.90;9.67;;;;;;;2.21;72.68;94256.38;5073497;28;20174;-65
2020/12/04 04:13:16;;;;;;;13.63;9.93;;;;;;;2.19;72.53;94246.28;5072967;28;20645;-65
2020/12/04 04:15:41;;;;;;;14.80;10.67;;;;;;;2.01;73.57;94236.97;5072085;28;20201;-65
2020/12/04 04:18:07;;;;;;;13.97;9.57;;;;;;;2.35;71.73;94242.09;5072579;28;20166;-65
2020/12/04 04:20:32;;;;;;;15.33;10.80;;;;;;;1.65;74.18;94229.72;5073026;28;20267;-65
2020/12/04 04:22:59;;;;;;;14.27;10.57;;;;;;;1.56;74.76;94231.88;5073259;28;20642;-64
2020/12/04 04:25:25;;;;;;;16.27;10.50;;;;;;;1.73;75.55;94226.72;5073373;28;20692;-65
2020/12/04 04:27:50;;;;;;;13.30;9.73;;;;;;;1.87;75.60;94234.97;5073573;28;20177;-65
2020/12/04 04:30:16;;;;;;;15.97;11.13;;;;;;;1.43;75.61;94234.78;5071160;28;20180;-65
2020/12/04 04:32:41;;;;;;;14.40;10.10;;;;;;;1.82;75.30;94247.78;5072145;28;20632;-65
2020/12/04 04:35:07;;;;;;;13.83;10.20;;;;;;;1.80;75.03;94224.00;5072692;28;20617;-65
2020/12/04 04:37:33;;;;;;;14.70;10.93;;;;;;;2.19;73.14;94240.34;5073758;28;20181;-65
2020/12/04 04:39:58;;;;;;;14.10;10.13;;;;;;;2.08;73.99;94253.09;5072612;28;20184;-65
2020/12/04 04:42:23;;;;;;;14.70;10.30;;;;;;;2.12;73.16;94257.81;5073009;28;20178;-65
2020/12/04 04:44:50;;;;;;;14.37;9.40;;;;;;;2.16;72.31;94264.84;5073212;28;20197;-65
2020/12/04 04:47:20;;;;;;;15.43;9.63;;;;;;;2.21;72.16;94275.25;5081181;28;20453;-65
2020/12/04 04:49:51;;;;;;;13.70;9.33;;;;;;;2.56;70.78;94256.88;5078213;28;20571;-65
2020/12/04 04:52:18;;;;;;;11.77;8.63;;;;;;;2.67;70.16;94243.06;5072065;28;20551;-65
2020/12/04 04:54:47;;;;;;;11.33;8.50;;;;;;;2.51;70.39;94261.97;5071227;28;20301;-65
2020/12/04 04:57:15;;;;;;;11.80;7.93;;;;;;;2.32;70.94;94258.09;5072654;28;20669;-65
2020/12/04 04:59:40;;;;;;;13.07;8.07;;;;;;;2.36;71.75;94252.22;5074334;28;20173;-65
2020/12/04 05:02:10;;;;;;;10.73;8.60;;;;;;;2.47;71.33;94259.09;5072651;28;20534;-65
2020/12/04 05:04:55;;;;;;;12.00;8.37;;;;;;;2.67;70.05;94265.56;5059530;28;20170;-65
2020/12/04 05:07:32;;;;;;;10.93;8.10;;;;;;;2.64;70.05;94261.63;5072152;28;20173;-65
2020/12/04 05:10:20;;;;;;;10.27;7.90;;;;;;;2.57;70.23;94262.81;5072069;28;20234;-64
2020/12/04 05:13:01;;;;;;;12.20;9.03;;;;;;;2.65;70.62;94265.78;5059901;28;20165;-65
2020/12/04 05:15:28;;;;;;;10.77;8.50;;;;;;;2.90;69.61;94257.53;5072402;28;20227;-65
2020/12/04 05:18:07;;;;;;;13.37;8.80;;;;;;;2.82;70.31;94255.41;5072498;28;20208;-65
2020/12/04 05:20:37;;;;;;;14.33;8.87;;;;;;;2.65;70.56;94252.84;5069839;28;20173;-65
2020/12/04 05:23:05;;;;;;;11.50;8.70;;;;;;;2.85;69.98;94249.72;5071822;28;20256;-65
2020/12/04 05:25:42;;;;;;;12.53;8.80;;;;;;;2.76;70.92;94238.25;5070807;28;20743;-65
2020/12/04 05:28:08;;;;;;;12.93;9.37;;;;;;;2.86;69.98;94226.22;5068676;28;20173;-65
2020/12/04 05:30:34;;;;;;;13.07;9.23;;;;;;;2.74;70.97;94222.19;5072577;28;20623;-65
2020/12/04 05:33:01;;;;;;;13.97;9.10;;;;;;;2.54;71.77;94222.72;5071804;28;20219;-64
2020/12/04 05:35:27;;;;;;;12.97;9.57;;;;;;;2.61;71.67;94217.38;5072044;28;20193;-65
2020/12/04 05:38:11;;;;;;;15.30;9.77;;;;;;;2.78;70.64;94221.47;5072198;28;20200;-65
2020/12/04 05:40:46;;;;;;;13.57;9.57;;;;;;;2.73;71.17;94216.22;5061027;28;20192;-65
2020/12/04 05:43:13;;;;;;;12.10;8.77;;;;;;;2.66;70.99;94210.47;5071356;28;20599;-65
2020/12/04 05:45:38;;;;;;;10.90;8.73;;;;;;;2.80;70.30;94200.53;5072080;28;20199;-65
2020/12/04 05:48:15;;;;;;;12.20;9.00;;;;;;;2.93;69.43;94213.88;5072360;28;20177;-65
2020/12/04 05:50:41;;;;;;;10.77;7.93;;;;;;;2.91;68.82;94209.97;5072050;28;20184;-65
2020/12/04 05:53:10;;;;;;;11.00;7.63;;;;;;;2.70;69.53;94216.72;5071475;28;20177;-65
2020/12/04 05:55:37;;;;;;;11.17;8.63;;;;;;;2.64;69.46;94220.25;5068373;28;20237;-65
2020/12/04 05:58:04;;;;;;;12.13;8.90;;;;;;;2.78;69.81;94218.13;5069914;28;20182;-65
2020/12/04 06:00:30;;;;;;;12.90;9.30;;;;;;;2.87;68.41;94214.06;5070811;28;20177;-65
2020/12/04 06:03:00;;;;;;;14.83;9.50;;;;;;;2.78;69.42;94210.34;5070505;28;20196;-65
2020/12/04 06:05:27;;;;;;;16.03;10.20;;;;;;;2.78;69.56;94218.13;5068328;28;20193;-65
2020/12/04 06:07:59;;;;;;;16.13;9.80;;;;;;;2.84;69.95;94217.16;5068950;28;20209;-64
2020/12/04 06:10:26;;;;;;;16.77;9.83;;;;;;;2.81;70.22;94215.03;5068863;28;20193;-65
2020/12/04 06:12:53;;;;;;;15.97;10.97;;;;;;;2.78;69.73;94210.34;5070252;28;20177;-65
2020/12/04 06:15:26;;;;;;;14.27;10.27;;;;;;;2.74;69.65;94206.66;5069287;28;20360;-65
2020/12/04 06:17:51;;;;;;;13.87;9.93;;;;;;;2.69;69.41;94194.47;5070508;28;20315;-65
2020/12/04 06:20:22;;;;;;;15.83;10.17;;;;;;;2.57;70.38;94209.31;5069673;28;20251;-64
2020/12/04 06:23:04;;;;;;;14.47;9.40;;;;;;;4.01;73.61;94199.03;5071380;28;20166;-72
2020/12/04 06:25:53;;;;;;;14.07;9.60;;;;;;;3.82;67.61;94187.50;5070935;28;20225;-67
2020/12/04 06:28:21;;;;;;;14.40;10.00;;;;;;;3.70;66.28;94185.09;5057485;28;20603;-67
2020/12/04 06:31:13;;;;;;;17.13;9.80;;;;;;;3.26;66.97;94179.28;5071336;28;20174;-66
2020/12/04 06:33:41;;;;;;;12.60;9.33;;;;;;;2.86;69.12;94178.88;5065247;28;20224;-67
2020/12/04 06:36:09;;;;;;;12.37;9.70;;;;;;;2.79;69.14;94180.84;5069825;28;20681;-66
2020/12/04 06:38:35;;;;;;;13.10;9.37;;;;;;;2.74;69.38;94180.81;5070232;28;20521;-66
2020/12/04 06:41:25;;;;;;;13.20;9.40;;;;;;;2.62;70.27;94193.84;5070157;28;20177;-66
2020/12/04 06:44:18;;;;;;;15.33;10.03;;;;;;;2.49;70.88;94199.41;5069843;28;20181;-67
2020/12/04 06:46:51;;;;;;;14.40;9.93;;;;;;;2.54;70.77;94183.16;5071072;28;20677;-67
2020/12/04 06:49:39;;;;;;;15.30;10.17;;;;;;;2.67;70.99;94180.22;5070007;28;20250;-64
2020/12/04 06:52:12;;;;;;;16.67;11.87;;;;;;;2.61;71.06;94183.78;5059518;28;20213;-67
2020/12/04 06:54:49;;;;;;;14.40;10.07;;;;;;;2.42;70.78;94170.34;5068527;28;20265;-67
2020/12/04 06:57:17;;;;;;;14.77;10.40;;;;;;;2.53;70.68;94179.78;5069708;28;20283;-64
2020/12/04 06:59:44;;;;;;;15.37;10.57;;;;;;;2.58;70.30;94177.25;5071384;28;20180;-67
2020/12/04 07:02:17;;;;;;;15.83;10.70;;;;;;;2.67;69.57;94180.22;5069953;28;20169;-65
2020/12/04 07:04:46;;;;;;;13.77;9.93;;;;;;;2.39;70.71;94181.19;5070554;28;20169;-66
2020/12/04 07:07:27;;;;;;;14.80;10.13;;;;;;;2.48;69.75;94185.69;5070217;28;20162;-65
2020/12/04 07:10:01;;;;;;;15.80;9.63;;;;;;;2.46;70.67;94199.88;5070978;28;20215;-67
2020/12/04 07:12:28;;;;;;;14.87;10.53;;;;;;;2.48;70.49;94198.63;5070373;28;20173;-67
2020/12/04 07:14:55;;;;;;;16.63;10.93;;;;;;;2.36;71.14;94194.56;5070545;28;20231;-67
2020/12/04 07:17:29;;;;;;;14.93;10.20;;;;;;;2.30;71.27;94195.53;5069835;28;20209;-67
2020/12/04 07:19:55;;;;;;;14.57;9.93;;;;;;;2.49;70.86;94187.25;5070234;28;20177;-67
2020/12/04 07:22:23;;;;;;;14.53;9.97;;;;;;;2.59;70.95;94190.97;5068813;28;20267;-67
2020/12/04 07:24:50;;;;;;;13.57;10.23;;;;;;;2.79;69.83;94193.78;5069942;28;20204;-68
2020/12/04 07:27:18;;;;;;;14.53;10.20;;;;;;;2.66;69.64;94191.59;5070436;28;20166;-66
2020/12/04 07:29:44;;;;;;;14.17;11.03;;;;;;;2.63;70.86;94189.47;5070406;28;20205;-66
2020/12/04 07:32:11;;;;;;;16.33;10.73;;;;;;;2.55;70.03;94180.34;5070812;28;20174;-66
2020/12/04 07:34:38;;;;;;;17.07;11.33;;;;;;;2.43;71.03;94177.88;5070646;28;20177;-66
2020/12/04 07:37:06;;;;;;;17.10;11.30;;;;;;;2.43;70.88;94177.09;5069236;28;20212;-66
2020/12/04 07:39:36;;;;;;;17.07;11.63;;;;;;;2.32;72.10;94183.16;5073782;28;20204;-66
2020/12/04 07:42:03;;;;;;;15.60;11.40;;;;;;;2.51;71.38;94184.41;5060669;28;20213;-66
2020/12/04 07:44:34;;;;;;;16.40;10.90;;;;;;;2.48;72.02;94192.66;5072518;28;20709;-66
2020/12/04 07:47:14;;;;;;;14.60;10.33;;;;;;;2.49;71.18;94176.13;5073730;28;20177;-65
2020/12/04 07:49:48;;;;;;;11.93;9.30;;;;;;;2.71;70.35;94183.88;5063958;28;20185;-66
2020/12/04 07:52:24;;;;;;;13.03;9.77;;;;;;;2.93;69.92;94184.66;5072936;28;20173;-66
2020/12/04 07:54:57;;;;;;;14.93;10.60;;;;;;;3.04;70.10;94175.97;5071500;28;20239;-66
2020/12/04 07:57:32;;;;;;;19.13;12.00;;;;;;;3.04;69.10;94165.63;5073253;28;20276;-66
2020/12/04 07:59:59;;;;;;;16.77;11.13;;;;;;;2.90;70.30;94161.84;5073174;28;20165;-66
2020/12/04 08:02:27;;;;;;;18.67;11.90;;;;;;;2.82;69.87;94159.69;5072431;28;20227;-66
2020/12/04 08:04:54;;;;;;;15.73;10.77;;;;;;;2.86;71.50;94168.53;5072264;28;20741;-66
2020/12/04 08:07:21;;;;;;;16.00;11.00;;;;;;;2.86;70.72;94169.31;5071770;28;21083;-66
2020/12/04 08:09:46;;;;;;;16.80;10.90;;;;;;;3.13;69.50;94166.72;5073775;28;20230;-66
2020/12/04 08:12:14;;;;;;;15.77;10.60;;;;;;;2.98;69.92;94158.03;5072362;28;20182;-65
2020/12/04 08:14:46;;;;;;;21.10;12.20;;;;;;;3.22;69.05;94160.09;5073435;28;20320;-66
2020/12/04 08:17:16;;;;;;;19.57;12.00;;;;;;;3.23;69.30;94164.22;5072845;28;20193;-66
2020/12/04 08:19:43;;;;;;;15.53;11.33;;;;;;;3.25;68.76;94135.53;5073454;28;20180;-66
2020/12/04 08:22:08;;;;;;;16.63;11.93;;;;;;;3.19;68.82;94129.53;5072201;28;20638;-66
2020/12/04 08:25:01;;;;;;;20.70;11.50;;;;;;;3.35;68.58;94122.66;5073473;28;20183;-66
2020/12/04 08:27:27;;;;;;;17.63;11.20;;;;;;;3.47;68.09;94125.06;5074122;28;20621;-66
2020/12/04 08:30:09;;;;;;;14.83;9.80;;;;;;;3.34;68.38;94103.00;5073004;28;20300;-66
2020/12/04 08:32:35;;;;;;;14.23;9.87;;;;;;;3.35;67.18;94107.91;5074214;28;20252;-66
2020/12/04 08:35:42;;;;;;;14.40;9.90;;;;;;;3.36;67.39;94113.88;5072255;28;20301;-66
2020/12/04 08:38:13;;;;;;;18.23;10.77;;;;;;;3.66;66.15;94116.69;5045539;28;20201;-67
2020/12/04 08:41:02;;;;;;;17.47;9.63;;;;;;;3.31;64.71;94111.25;5071640;28;20181;-66
2020/12/04 08:43:28;;;;;;;12.17;8.90;;;;;;;3.56;65.19;94110.66;5072037;28;20543;-66
2020/12/04 08:45:55;;;;;;;12.27;8.33;;;;;;;3.55;65.75;94107.28;5073162;28;20209;-66
2020/12/04 08:48:22;;;;;;;10.37;7.47;;;;;;;3.75;65.91;94110.00;5062805;28;20200;-67
2020/12/04 08:50:59;;;;;;;12.10;7.87;;;;;;;3.70;67.23;94098.84;5073711;28;20189;-67
2020/12/04 08:53:29;;;;;;;11.00;8.23;;;;;;;4.00;66.10;94091.25;5072980;28;20268;-67
2020/12/04 08:55:59;;;;;;;14.37;8.70;;;;;;;4.10;66.13;94109.44;5055361;28;20745;-67
2020/12/04 08:58:36;;;;;;;11.47;7.47;;;;;;;4.04;65.06;94123.41;5052721;28;20204;-67
2020/12/04 09:01:02;;;;;;;12.93;7.47;;;;;;;4.31;64.74;94117.28;5050852;28;20659;-67
2020/12/04 09:03:40;;;;;;;11.20;7.33;;;;;;;4.21;63.11;94117.25;5053213;28;20170;-67
2020/12/04 09:06:06;;;;;;;8.93;6.90;;;;;;;4.30;63.52;94115.72;5052202;28;20684;-67
2020/12/04 09:08:38;;;;;;;10.43;7.43;;;;;;;4.53;62.96;94110.91;5053139;28;20178;-67
2020/12/04 09:11:43;;;;;;;11.27;7.13;;;;;;;4.56;62.75;94102.63;5059306;28;20529;-67
2020/12/04 09:14:09;;;;;;;10.50;8.10;;;;;;;4.56;62.77;94113.00;5030707;28;20189;-67
2020/12/04 09:16:47;;;;;;;12.20;9.20;;;;;;;4.58;63.70;94129.06;5053812;28;20611;-67
2020/12/04 09:19:16;;;;;;;13.43;9.73;;;;;;;4.70;63.77;94144.41;5042772;28;20185;-67
2020/12/04 09:21:47;;;;;;;13.97;10.10;;;;;;;4.76;63.05;94147.81;5051868;28;20178;-66
2020/12/04 09:24:18;;;;;;;12.23;9.70;;;;;;;4.51;64.08;94146.66;5051012;28;20182;-66
2020/12/04 09:26:44;;;;;;;14.03;10.50;;;;;;;4.58;64.21;94142.03;5052115;28;20197;-67
2020/12/04 09:29:09;;;;;;;15.13;9.87;;;;;;;4.54;64.18;94148.78;5051684;28;20182;-67
2020/12/04 09:31:35;;;;;;;13.13;10.10;;;;;;;4.57;64.54;94143.06;5052562;28;20178;-67
2020/12/04 09:34:01;;;;;;;17.03;9.73;;;;;;;4.44;64.78;94142.75;5052010;28;20173;-66
2020/12/04 09:36:32;;;;;;;13.23;9.67;;;;;;;4.40;65.27;94145.06;5051904;28;20217;-66
2020/12/04 09:38:58;;;;;;;12.93;9.87;;;;;;;4.39;65.26;94138.34;5050271;28;20229;-67
2020/12/04 09:41:23;;;;;;;14.00;9.97;;;;;;;4.30;65.95;94128.69;5049512;28;20171;-66
2020/12/04 09:43:49;;;;;;;14.37;10.27;;;;;;;4.57;64.96;94127.50;5047493;28;20178;-66
2020/12/04 09:46:14;;;;;;;14.03;10.43;;;;;;;4.63;64.72;94123.13;5050755;28;20257;-66
2020/12/04 09:48:40;;;;;;;14.43;10.63;;;;;;;4.50;64.89;94102.84;5052112;28;20185;-66
2020/12/04 09:51:11;;;;;;;14.73;9.50;;;;;;;4.28;65.13;94095.25;5051167;28;20258;-67
2020/12/04 09:53:40;;;;;;;15.63;9.23;;;;;;;4.23;64.45;94103.03;5051654;28;20185;-67
2020/12/04 09:56:11;;;;;;;13.27;9.37;;;;;;;4.25;64.89;94097.56;5043367;28;20734;-66
2020/12/04 09:58:40;;;;;;;14.07;9.20;;;;;;;4.36;64.33;94086.19;5055147;28;20177;-66
2020/12/04 10:01:14;;;;;;;15.57;9.63;;;;;;;4.37;63.75;94083.34;5049519;28;20208;-66
2020/12/04 10:08:49;;;;;;;12.33;9.23;;;;;;;4.22;64.04;94092.91;5268877;22;20238;-74
2020/12/04 10:11:14;;;;;;;11.83;8.60;;;;;;;3.79;65.32;94092.16;5012668;28;20261;-74
2020/12/04 10:13:40;;;;;;;13.27;9.10;;;;;;;3.81;65.64;94087.50;5012664;28;20262;-72
2020/12/04 10:16:05;;;;;;;16.50;8.93;;;;;;;4.01;65.32;94110.16;5011574;28;20293;-75
2020/12/04 10:18:33;;;;;;;13.10;9.43;;;;;;;4.24;64.35;94114.91;5012383;28;20179;-72
2020/12/04 10:20:59;;;;;;;12.73;8.77;;;;;;;4.15;65.40;94108.66;5011323;28;20186;-75
2020/12/04 10:23:24;;;;;;;13.23;9.13;;;;;;;4.28;64.86;94121.19;5007137;28;20188;-73
2020/12/04 10:25:55;;;;;;;17.30;9.90;;;;;;;4.32;65.84;94114.44;5011112;28;20183;-72
2020/12/04 10:28:24;;;;;;;15.67;9.53;;;;;;;4.28;66.03;94123.00;5012107;28;20180;-72
2020/12/04 10:30:55;;;;;;;16.07;10.50;;;;;;;4.26;66.87;94122.44;5011827;28;20525;-72
2020/12/04 10:33:24;;;;;;;14.40;10.63;;;;;;;4.21;66.67;94114.66;5011156;28;20183;-73
2020/12/04 10:35:49;;;;;;;14.57;10.50;;;;;;;4.34;66.84;94117.59;5010855;28;20659;-73
2020/12/04 10:38:15;;;;;;;16.33;10.97;;;;;;;4.56;65.68;94115.59;5011586;28;20187;-73
2020/12/04 10:40:40;;;;;;;20.30;10.33;;;;;;;4.63;64.93;94117.13;5011751;28;20305;-72
2020/12/04 10:43:06;;;;;;;11.50;9.03;;;;;;;4.51;65.14;94110.34;5010050;28;20878;-73
2020/12/04 10:45:31;;;;;;;14.93;9.87;;;;;;;4.56;65.71;94115.59;5004410;28;20253;-73
2020/12/04 10:48:00;;;;;;;13.43;9.57;;;;;;;4.57;65.18;94111.16;5010868;28;20182;-75
2020/12/04 10:50:25;;;;;;;17.50;10.43;;;;;;;4.45;65.22;94121.78;5011271;28;20183;-75
2020/12/04 10:52:51;;;;;;;15.00;9.57;;;;;;;4.36;65.10;94096.56;5010993;28;20175;-75
2020/12/04 10:55:19;;;;;;;13.57;9.47;;;;;;;4.26;66.50;94101.72;5011408;28;20184;-75
2020/12/04 10:57:47;;;;;;;13.67;9.80;;;;;;;4.29;66.27;94094.19;5011121;28;20179;-75
2020/12/04 11:00:13;;;;;;;14.00;9.27;;;;;;;4.02;67.71;94075.44;5010408;28;20183;-73
2020/12/04 11:02:40;;;;;;;15.97;9.90;;;;;;;3.69;68.82;94054.03;5010901;28;20202;-72
2020/12/04 11:07:50;;;;;;;12.93;9.23;;;;;;;4.16;67.60;94128.38;5010784;28;20171;-74
2020/12/04 11:10:15;;;;;;;13.63;9.40;;;;;;;4.24;67.48;94114.13;5005887;28;20590;-73
2020/12/04 11:12:41;;;;;;;15.17;9.77;;;;;;;4.27;67.13;94105.88;5012462;28;20187;-73
2020/12/04 11:15:09;;;;;;;17.10;9.67;;;;;;;4.38;66.58;94100.47;5003175;28;20190;-73
2020/12/04 11:17:35;;;;;;;12.63;9.13;;;;;;;4.36;65.73;94091.38;5014965;28;20272;-73
2020/12/04 11:20:02;;;;;;;12.47;8.77;;;;;;;4.43;65.56;94074.56;5013095;28;20187;-73
2020/12/04 11:22:32;;;;;;;13.63;9.10;;;;;;;4.37;66.56;94085.16;5014958;28;20191;-73
2020/12/04 11:24:58;;;;;;;13.43;9.53;;;;;;;4.41;67.16;94086.22;5014683;28;20274;-73
2020/12/04 11:27:23;;;;;;;14.50;8.97;;;;;;;4.51;65.33;94065.53;5015305;28;20314;-73
2020/12/04 11:29:48;;;;;;;14.00;8.63;;;;;;;4.55;64.96;94063.97;5013836;28;20183;-73
2020/12/04 11:32:14;;;;;;;12.37;7.97;;;;;;;4.41;65.70;94081.03;5014167;28;20179;-73
2020/12/04 11:34:39;;;;;;;14.20;9.07;;;;;;;4.25;66.58;94079.41;5014258;28;20195;-73
2020/12/04 11:37:09;;;;;;;12.40;9.10;;;;;;;4.37;67.10;94072.97;5014044;28;20202;-73
2020/12/04 11:39:36;;;;;;;12.97;8.37;;;;;;;4.45;65.52;94069.91;5014749;28;20238;-72
2020/12/04 11:42:02;;;;;;;14.83;8.87;;;;;;;4.67;66.21;94066.34;5013296;28;20262;-73
2020/12/04 11:44:27;;;;;;;14.27;9.40;;;;;;;4.57;66.48;94069.66;5010936;28;20185;-73